Time;durP1;ratioP1;P1;durP2;ratioP2;P2;SDS_P1;SDS_P2;PMS_P1;PMS_P2;Temp;Humidity;BMP_temperature;BMP_pressure;BME280_temperature;BME280_humidity;BME280_pressure;Samples;Min_cycle;Max_cycle;Signal;HPM_P1;HPM_P2
2023/11/14 05:00:53;;;;;;;1999.90;999.90;;;;;;;;;;5068387;28;20785;-79
2023/11/14 05:03:19;;;;;;;1999.90;999.90;;;;;;;;;;5068145;28;20021;-67
2023/11/14 05:05:45;;;;;;;1999.90;999.90;;;;;;;;;;5068370;28;20357;-71
2023/11/14 05:08:11;;;;;;;1999.90;999.90;;;;;;;;;;5066859;28;20021;-79
2023/11/14 05:10:37;;;;;;;1999.90;999.90;;;;;;;;;;5066375;28;20033;-84
2023/11/14 05:13:03;;;;;;;1999.90;999.90;;;;;;;;;;5067735;28;20041;-78
2023/11/14 05:15:30;;;;;;;1999.90;999.90;;;;;;;;;;5068443;28;20479;-77
2023/11/14 05:17:56;;;;;;;1999.90;999.90;;;;;;;;;;5068284;28;20464;-83
2023/11/14 05:20:23;;;;;;;1999.90;999.90;;;;;;;;;;5068259;28;20048;-78
2023/11/14 05:22:49;;;;;;;1999.90;999.90;;;;;;;;;;5067908;28;20063;-71
2023/11/14 05:25:15;;;;;;;1999.90;999.90;;;;;;;;;;5067933;28;20047;-84
2023/11/14 05:27:41;;;;;;;1999.90;999.90;;;;;;;;;;5068315;28;20443;-81
2023/11/14 05:30:12;;;;;;;1999.90;999.90;;;;;;;;;;5067480;28;20482;-75
2023/11/14 05:32:38;;;;;;;1999.90;999.90;;;;;;;;;;5067560;28;20081;-76
2023/11/14 05:35:05;;;;;;;1999.90;999.90;;;;;;;;;;5067617;28;20025;-77
2023/11/14 05:37:31;;;;;;;1999.90;999.90;;;;;;;;;;5067966;28;20032;-69
2023/11/14 05:39:57;;;;;;;1999.90;999.90;;;;;;;;;;5066020;28;20404;-67
2023/11/14 05:42:23;;;;;;;1999.90;999.90;;;;;;;;;;5066863;28;20100;-73
2023/11/14 05:44:49;;;;;;;1999.90;999.90;;;;;;;;;;5067109;28;20219;-82
2023/11/14 05:47:15;;;;;;;1999.90;999.90;;;;;;;;;;5067126;28;20024;-70
2023/11/14 05:49:42;;;;;;;1999.90;999.90;;;;;;;;;;5067502;28;20408;-81
2023/11/14 05:52:08;;;;;;;1999.90;999.90;;;;;;;;;;5058009;28;20029;-82
2023/11/14 05:54:34;;;;;;;1999.90;999.90;;;;;;;;;;5057837;28;20029;-68
2023/11/14 05:57:00;;;;;;;1999.90;999.90;;;;;;;;;;5061425;28;20028;-71
2023/11/14 05:59:26;;;;;;;1999.90;999.90;;;;;;;;;;5066902;28;20106;-83
2023/11/14 06:01:53;;;;;;;1999.90;999.90;;;;;;;;;;5066931;28;20025;-77
2023/11/14 06:04:21;;;;;;;1999.90;999.90;;;;;;;;;;5066885;28;20609;-79
2023/11/14 06:06:47;;;;;;;1999.90;999.90;;;;;;;;;;5066758;28;20025;-78
2023/11/14 06:09:13;;;;;;;1999.90;999.90;;;;;;;;;;5066816;28;20032;-69
2023/11/14 06:11:39;;;;;;;1999.90;999.90;;;;;;;;;;5055421;28;20067;-72
2023/11/14 06:14:05;;;;;;;1999.90;999.90;;;;;;;;;;5053463;28;20028;-69
2023/11/14 06:16:32;;;;;;;1999.90;999.90;;;;;;;;;;5053275;28;20021;-71
2023/11/14 06:18:58;;;;;;;1999.90;999.90;;;;;;;;;;5053547;28;20036;-79
2023/11/14 06:21:24;;;;;;;1999.90;999.90;;;;;;;;;;5053597;28;20433;-69
2023/11/14 06:23:50;;;;;;;1999.90;999.90;;;;;;;;;;5053363;28;20021;-80
2023/11/14 06:26:16;;;;;;;1999.90;999.90;;;;;;;;;;5053889;28;20472;-77
2023/11/14 06:28:42;;;;;;;1999.90;999.90;;;;;;;;;;5053168;28;20089;-73
2023/11/14 06:31:08;;;;;;;1999.90;999.90;;;;;;;;;;5053647;28;20404;-77
2023/11/14 06:33:36;;;;;;;1999.90;999.90;;;;;;;;;;5051636;28;20112;-80
2023/11/14 06:36:02;;;;;;;1999.90;999.90;;;;;;;;;;5053206;28;20017;-69
2023/11/14 06:38:28;;;;;;;1999.90;999.90;;;;;;;;;;5053583;28;20042;-72
2023/11/14 06:40:55;;;;;;;1999.90;999.90;;;;;;;;;;5053287;28;20057;-70
2023/11/14 06:43:21;;;;;;;1999.90;999.90;;;;;;;;;;5053162;28;20434;-76
2023/11/14 06:45:47;;;;;;;1999.90;999.90;;;;;;;;;;5053179;28;20032;-71
2023/11/14 06:48:13;;;;;;;1999.90;999.90;;;;;;;;;;5053175;28;20024;-75
2023/11/14 06:50:40;;;;;;;1999.90;999.90;;;;;;;;;;5052137;28;20028;-73
2023/11/14 06:53:09;;;;;;;1999.90;999.90;;;;;;;;;;5056361;28;20029;-75
2023/11/14 06:55:35;;;;;;;1999.90;999.90;;;;;;;;;;5055565;28;20032;-75
2023/11/14 06:58:01;;;;;;;1999.90;999.90;;;;;;;;;;5055283;28;20035;-72
2023/11/14 07:00:27;;;;;;;1999.90;999.90;;;;;;;;;;5054806;28;20542;-74
2023/11/14 07:02:53;;;;;;;1999.90;999.90;;;;;;;;;;5052153;28;20025;-80
2023/11/14 07:05:19;;;;;;;1999.90;999.90;;;;;;;;;;5052493;28;20029;-73
2023/11/14 07:07:46;;;;;;;1999.90;999.90;;;;;;;;;;5052617;28;20021;-70
2023/11/14 07:10:13;;;;;;;1999.90;999.90;;;;;;;;;;5051275;28;20025;-76
2023/11/14 07:12:39;;;;;;;1999.90;999.90;;;;;;;;;;5050977;28;20041;-69
2023/11/14 07:15:06;;;;;;;1999.90;999.90;;;;;;;;;;5052439;28;20068;-67
2023/11/14 07:17:32;;;;;;;1999.90;999.90;;;;;;;;;;5052178;28;20481;-77
2023/11/14 07:19:58;;;;;;;1999.90;999.90;;;;;;;;;;5052402;28;20386;-67
2023/11/14 07:22:25;;;;;;;1999.90;999.90;;;;;;;;;;5051347;28;20458;-67
2023/11/14 07:24:52;;;;;;;1999.90;999.90;;;;;;;;;;5052208;28;20028;-69
2023/11/14 07:27:18;;;;;;;1999.90;999.90;;;;;;;;;;5052295;28;20029;-69
2023/11/14 07:29:45;;;;;;;1999.90;999.90;;;;;;;;;;5051910;28;20040;-67
2023/11/14 07:32:11;;;;;;;1999.90;999.90;;;;;;;;;;5050685;28;20154;-76
2023/11/14 07:34:37;;;;;;;1999.90;999.90;;;;;;;;;;5051938;28;20044;-70
2023/11/14 07:37:03;;;;;;;1999.90;999.90;;;;;;;;;;5052082;28;20020;-69
2023/11/14 07:39:31;;;;;;;1999.90;999.90;;;;;;;;;;5052205;28;20040;-77
2023/11/14 07:41:57;;;;;;;1999.90;999.90;;;;;;;;;;5051743;28;20512;-69
2023/11/14 07:44:23;;;;;;;1999.90;999.90;;;;;;;;;;5049813;28;20041;-75
2023/11/14 07:46:49;;;;;;;1999.90;999.90;;;;;;;;;;5051537;28;20114;-74
2023/11/14 07:49:15;;;;;;;1999.90;999.90;;;;;;;;;;5051512;28;20052;-73
2023/11/14 07:51:41;;;;;;;1999.90;999.90;;;;;;;;;;5051687;28;20443;-68
2023/11/14 07:54:07;;;;;;;1999.90;999.90;;;;;;;;;;5050284;28;20432;-71
2023/11/14 07:56:33;;;;;;;1999.90;999.90;;;;;;;;;;5049884;28;20091;-77
2023/11/14 07:58:59;;;;;;;1999.90;999.90;;;;;;;;;;5051340;28;20509;-69
2023/11/14 08:01:25;;;;;;;1999.90;999.90;;;;;;;;;;5051464;28;20515;-70
2023/11/14 08:03:51;;;;;;;1999.90;999.90;;;;;;;;;;5051245;28;20546;-74
2023/11/14 08:06:17;;;;;;;1999.90;999.90;;;;;;;;;;5051221;28;20063;-72
2023/11/14 08:08:44;;;;;;;1999.90;999.90;;;;;;;;;;5049980;28;20687;-68
2023/11/14 08:11:11;;;;;;;1999.90;999.90;;;;;;;;;;5051150;28;20040;-66
2023/11/14 08:13:37;;;;;;;1999.90;999.90;;;;;;;;;;5051568;28;20782;-68
2023/11/14 08:16:04;;;;;;;1999.90;999.90;;;;;;;;;;5049757;28;20048;-74
2023/11/14 08:18:30;;;;;;;1999.90;999.90;;;;;;;;;;5050688;28;20025;-68
2023/11/14 08:20:56;;;;;;;1999.90;999.90;;;;;;;;;;5050701;28;20476;-69
2023/11/14 08:23:22;;;;;;;1999.90;999.90;;;;;;;;;;5051006;28;20060;-68
2023/11/14 08:25:48;;;;;;;1999.90;999.90;;;;;;;;;;5050844;28;20484;-72
2023/11/14 08:28:14;;;;;;;1999.90;999.90;;;;;;;;;;5050976;28;20100;-69
2023/11/14 08:30:41;;;;;;;1999.90;999.90;;;;;;;;;;5050774;28;20029;-69
2023/11/14 08:33:10;;;;;;;1999.90;999.90;;;;;;;;;;5050602;28;20021;-71
2023/11/14 08:35:36;;;;;;;1999.90;999.90;;;;;;;;;;5050517;28;20021;-75
2023/11/14 08:38:02;;;;;;;1999.90;999.90;;;;;;;;;;5050913;28;20389;-68
2023/11/14 08:40:29;;;;;;;1999.90;999.90;;;;;;;;;;5050993;28;20032;-74
2023/11/14 08:42:55;;;;;;;1999.90;999.90;;;;;;;;;;5050709;28;20025;-72
2023/11/14 08:45:23;;;;;;;1999.90;999.90;;;;;;;;;;5050293;28;20109;-70
2023/11/14 08:47:50;;;;;;;1999.90;999.90;;;;;;;;;;5050508;28;20025;-75
2023/11/14 08:50:18;;;;;;;1999.90;999.90;;;;;;;;;;5050608;28;20550;-68
2023/11/14 08:52:44;;;;;;;1999.90;999.90;;;;;;;;;;5050527;28;20023;-72
2023/11/14 08:55:10;;;;;;;1999.90;999.90;;;;;;;;;;5050815;28;20029;-70
2023/11/14 08:57:36;;;;;;;1999.90;999.90;;;;;;;;;;5050787;28;20107;-72
2023/11/14 09:00:03;;;;;;;1999.90;999.90;;;;;;;;;;5050360;28;20085;-73
2023/11/14 09:02:29;;;;;;;1999.90;999.90;;;;;;;;;;5046548;28;20071;-72
2023/11/14 09:04:56;;;;;;;1999.90;999.90;;;;;;;;;;5038329;28;20029;-77
2023/11/14 09:07:22;;;;;;;1999.90;999.90;;;;;;;;;;5039805;28;20023;-77
2023/11/14 09:09:48;;;;;;;1999.90;999.90;;;;;;;;;;5040734;28;20067;-73
2023/11/14 09:12:14;;;;;;;1999.90;999.90;;;;;;;;;;5042964;28;20024;-74
2023/11/14 09:14:40;;;;;;;1999.90;999.90;;;;;;;;;;5045810;28;20029;-68
2023/11/14 09:17:08;;;;;;;1999.90;999.90;;;;;;;;;;5046184;28;20024;-71
2023/11/14 09:19:35;;;;;;;1999.90;999.90;;;;;;;;;;5040211;28;20029;-70
2023/11/14 09:22:01;;;;;;;1999.90;999.90;;;;;;;;;;5034617;28;20017;-68
2023/11/14 09:24:27;;;;;;;1999.90;999.90;;;;;;;;;;5040872;28;20026;-69
2023/11/14 09:26:54;;;;;;;1999.90;999.90;;;;;;;;;;5039143;28;20430;-73
2023/11/14 09:29:21;;;;;;;1999.90;999.90;;;;;;;;;;5039720;28;20029;-75
2023/11/14 09:31:47;;;;;;;1999.90;999.90;;;;;;;;;;5040675;28;20048;-71
2023/11/14 09:34:13;;;;;;;1999.90;999.90;;;;;;;;;;5050230;28;20072;-69
2023/11/14 09:36:39;;;;;;;1999.90;999.90;;;;;;;;;;5049891;28;20025;-71
2023/11/14 09:39:07;;;;;;;1999.90;999.90;;;;;;;;;;5050389;28;20028;-71
2023/11/14 09:41:33;;;;;;;1999.90;999.90;;;;;;;;;;5050310;28;20131;-71
2023/11/14 09:44:00;;;;;;;1999.90;999.90;;;;;;;;;;5049968;28;20048;-70
2023/11/14 09:46:29;;;;;;;1999.90;999.90;;;;;;;;;;5051777;28;20035;-69
2023/11/14 09:48:56;;;;;;;1999.90;999.90;;;;;;;;;;5053580;28;20036;-71
2023/11/14 09:51:22;;;;;;;1999.90;999.90;;;;;;;;;;5054217;28;20380;-71
2023/11/14 09:53:49;;;;;;;1999.90;999.90;;;;;;;;;;5053887;28;20021;-72
2023/11/14 09:56:16;;;;;;;1999.90;999.90;;;;;;;;;;5053791;28;20060;-73
2023/11/14 09:58:42;;;;;;;1999.90;999.90;;;;;;;;;;5053360;28;20040;-72
2023/11/14 10:01:10;;;;;;;1999.90;999.90;;;;;;;;;;5053465;28;20032;-68
2023/11/14 10:03:36;;;;;;;1999.90;999.90;;;;;;;;;;5053411;28;20051;-71
2023/11/14 10:06:02;;;;;;;1999.90;999.90;;;;;;;;;;5053400;28;20421;-69
2023/11/14 10:08:28;;;;;;;1999.90;999.90;;;;;;;;;;5053484;28;20082;-69
2023/11/14 10:11:09;;;;;;;1999.90;999.90;;;;;;;;;;5053324;28;20468;-72
2023/11/14 10:13:36;;;;;;;1999.90;999.90;;;;;;;;;;5053327;28;20563;-71
2023/11/14 10:16:14;;;;;;;1999.90;999.90;;;;;;;;;;5052963;28;20059;-72
2023/11/14 10:18:40;;;;;;;1999.90;999.90;;;;;;;;;;5048391;28;20036;-70
2023/11/14 10:21:21;;;;;;;1999.90;999.90;;;;;;;;;;5039118;28;20086;-69
2023/11/14 10:23:47;;;;;;;1999.90;999.90;;;;;;;;;;5039947;28;20028;-69
2023/11/14 10:26:13;;;;;;;1999.90;999.90;;;;;;;;;;5038904;28;20032;-69
2023/11/14 10:28:51;;;;;;;1999.90;999.90;;;;;;;;;;5032910;28;20076;-69
2023/11/14 10:31:17;;;;;;;1999.90;999.90;;;;;;;;;;5033095;28;20029;-71
2023/11/14 10:33:43;;;;;;;1999.90;999.90;;;;;;;;;;5033004;28;20392;-68
2023/11/14 10:36:09;;;;;;;1999.90;999.90;;;;;;;;;;5032384;28;20061;-68
2023/11/14 10:38:36;;;;;;;1999.90;999.90;;;;;;;;;;5051047;28;20029;-69
2023/11/14 10:41:03;;;;;;;1999.90;999.90;;;;;;;;;;5052891;28;20096;-69
2023/11/14 10:43:29;;;;;;;1999.90;999.90;;;;;;;;;;5052945;28;20028;-68
2023/11/14 10:45:56;;;;;;;1999.90;999.90;;;;;;;;;;5052768;28;20033;-68
2023/11/14 10:48:26;;;;;;;1999.90;999.90;;;;;;;;;;5052780;28;20025;-69
2023/11/14 10:50:52;;;;;;;1999.90;999.90;;;;;;;;;;5052639;28;20082;-70
2023/11/14 10:53:18;;;;;;;1999.90;999.90;;;;;;;;;;5052755;28;20029;-69
2023/11/14 10:55:46;;;;;;;1999.90;999.90;;;;;;;;;;5052799;28;20017;-68
2023/11/14 10:58:13;;;;;;;1999.90;999.90;;;;;;;;;;5052358;28;20035;-70
2023/11/14 11:00:40;;;;;;;1999.90;999.90;;;;;;;;;;5052094;28;20053;-70
2023/11/14 11:03:06;;;;;;;1999.90;999.90;;;;;;;;;;5052022;28;20029;-72
2023/11/14 11:05:33;;;;;;;1999.90;999.90;;;;;;;;;;5052072;28;20401;-68
2023/11/14 11:08:04;;;;;;;1999.90;999.90;;;;;;;;;;5052004;28;20073;-72
2023/11/14 11:10:31;;;;;;;1999.90;999.90;;;;;;;;;;5052303;28;20406;-67
2023/11/14 11:12:58;;;;;;;1999.90;999.90;;;;;;;;;;5052364;28;20032;-69
2023/11/14 11:15:24;;;;;;;1999.90;999.90;;;;;;;;;;5031698;28;20036;-73
2023/11/14 11:17:59;;;;;;;1999.90;999.90;;;;;;;;;;5032034;28;20538;-71
2023/11/14 11:20:26;;;;;;;1999.90;999.90;;;;;;;;;;5032068;28;20033;-69
2023/11/14 11:23:02;;;;;;;1999.90;999.90;;;;;;;;;;5032075;28;20104;-71
2023/11/14 11:25:29;;;;;;;1999.90;999.90;;;;;;;;;;5031219;28;20033;-68
2023/11/14 11:27:56;;;;;;;1999.90;999.90;;;;;;;;;;5031143;28;20100;-73
2023/11/14 11:30:23;;;;;;;1999.90;999.90;;;;;;;;;;5031401;28;20029;-69
2023/11/14 11:32:55;;;;;;;1999.90;999.90;;;;;;;;;;5033539;28;20033;-71
2023/11/14 11:35:22;;;;;;;1999.90;999.90;;;;;;;;;;5036671;28;20075;-73
2023/11/14 11:38:09;;;;;;;1999.90;999.90;;;;;;;;;;5051831;28;20108;-72
2023/11/14 11:40:35;;;;;;;1999.90;999.90;;;;;;;;;;5035947;28;20037;-73
2023/11/14 11:43:10;;;;;;;1999.90;999.90;;;;;;;;;;5039526;28;20101;-69
2023/11/14 11:45:41;;;;;;;1999.90;999.90;;;;;;;;;;5031473;28;20030;-72
2023/11/14 11:48:31;;;;;;;1999.90;999.90;;;;;;;;;;5031123;28;20025;-70
2023/11/14 11:51:18;;;;;;;1999.90;999.90;;;;;;;;;;5037221;28;20075;-72
2023/11/14 11:53:44;;;;;;;1999.90;999.90;;;;;;;;;;5050792;28;20032;-72
2023/11/14 11:56:33;;;;;;;1999.90;999.90;;;;;;;;;;5051061;28;20033;-69
2023/11/14 11:58:59;;;;;;;1999.90;999.90;;;;;;;;;;5050972;28;20056;-72
2023/11/14 12:01:25;;;;;;;1999.90;999.90;;;;;;;;;;5051073;28;20029;-72
2023/11/14 12:03:52;;;;;;;1999.90;999.90;;;;;;;;;;5051485;28;20160;-72
2023/11/14 12:06:19;;;;;;;1999.90;999.90;;;;;;;;;;5050981;28;20456;-72
2023/11/14 12:08:45;;;;;;;1999.90;999.90;;;;;;;;;;5050303;28;20025;-67
2023/11/14 12:11:14;;;;;;;1999.90;999.90;;;;;;;;;;5050526;28;20104;-72
2023/11/14 12:13:46;;;;;;;1999.90;999.90;;;;;;;;;;5050839;28;20021;-74
2023/11/14 12:16:13;;;;;;;1999.90;999.90;;;;;;;;;;5050886;28;20029;-72
2023/11/14 12:18:39;;;;;;;1999.90;999.90;;;;;;;;;;5051034;28;20031;-73
2023/11/14 12:21:05;;;;;;;1999.90;999.90;;;;;;;;;;5050940;28;20029;-71
2023/11/14 12:23:32;;;;;;;1999.90;999.90;;;;;;;;;;5050792;28;20508;-70
2023/11/14 12:25:59;;;;;;;1999.90;999.90;;;;;;;;;;5050782;28;20024;-74
2023/11/14 12:28:25;;;;;;;1999.90;999.90;;;;;;;;;;5050632;28;20078;-73
2023/11/14 12:30:58;;;;;;;1999.90;999.90;;;;;;;;;;5050478;28;20025;-74
2023/11/14 12:33:24;;;;;;;1999.90;999.90;;;;;;;;;;5050477;28;20376;-71
2023/11/14 12:35:57;;;;;;;1999.90;999.90;;;;;;;;;;5050363;28;20025;-70
2023/11/14 12:38:23;;;;;;;;;;;;;;;;;;5050027;28;20354;-71
2023/11/14 12:40:52;;;;;;;1999.90;999.90;;;;;;;;;;5050606;28;19912;-73
2023/11/14 12:43:18;;;;;;;1999.90;999.90;;;;;;;;;;5050398;28;20105;-69
2023/11/14 12:45:45;;;;;;;1999.90;999.90;;;;;;;;;;5050207;28;20029;-69
2023/11/14 12:48:12;;;;;;;1999.90;999.90;;;;;;;;;;5049837;28;20029;-70
2023/11/14 12:50:38;;;;;;;1999.90;999.90;;;;;;;;;;5050230;28;20039;-72
2023/11/14 12:53:04;;;;;;;1999.90;999.90;;;;;;;;;;5049975;28;20025;-68
2023/11/14 12:55:30;;;;;;;1999.90;999.90;;;;;;;;;;5050150;28;20040;-68
2023/11/14 12:57:56;;;;;;;1999.90;999.90;;;;;;;;;;5050446;28;20029;-72
2023/11/14 13:00:22;;;;;;;1999.90;999.90;;;;;;;;;;5050222;28;20061;-68
2023/11/14 13:02:48;;;;;;;1999.90;999.90;;;;;;;;;;5048758;28;20029;-67
2023/11/14 13:05:14;;;;;;;1999.90;999.90;;;;;;;;;;5050300;28;20049;-72
2023/11/14 13:07:41;;;;;;;1999.90;999.90;;;;;;;;;;5050405;28;20017;-71
2023/11/14 13:10:07;;;;;;;1999.90;999.90;;;;;;;;;;5050599;28;20035;-71
2023/11/14 13:12:33;;;;;;;1999.90;999.90;;;;;;;;;;5050287;28;20086;-67
2023/11/14 13:14:59;;;;;;;1999.90;999.90;;;;;;;;;;5049877;28;20450;-68
2023/11/14 13:17:25;;;;;;;1999.90;999.90;;;;;;;;;;5050142;28;20357;-74
2023/11/14 13:19:51;;;;;;;1999.90;999.90;;;;;;;;;;5050017;28;20041;-68
2023/11/14 13:22:17;;;;;;;1999.90;999.90;;;;;;;;;;5053655;28;20028;-68
2023/11/14 13:24:43;;;;;;;1999.90;999.90;;;;;;;;;;5053845;28;20040;-72
2023/11/14 13:27:09;;;;;;;1999.90;999.90;;;;;;;;;;5053969;28;20365;-70
2023/11/14 13:29:36;;;;;;;1999.90;999.90;;;;;;;;;;5054525;28;20105;-72
2023/11/14 13:32:03;;;;;;;1999.90;999.90;;;;;;;;;;5054000;28;20024;-68
2023/11/14 13:34:29;;;;;;;1999.90;999.90;;;;;;;;;;5052331;28;20048;-72
2023/11/14 13:36:55;;;;;;;1999.90;999.90;;;;;;;;;;5054080;28;20021;-72
2023/11/14 13:39:21;;;;;;;1999.90;999.90;;;;;;;;;;5054403;28;20120;-74
2023/11/14 13:41:47;;;;;;;1999.90;999.90;;;;;;;;;;5053592;28;20020;-73
2023/11/14 13:44:14;;;;;;;1999.90;999.90;;;;;;;;;;5051875;28;20517;-72
2023/11/14 13:46:41;;;;;;;1999.90;999.90;;;;;;;;;;5053508;28;20120;-71
2023/11/14 13:49:09;;;;;;;1999.90;999.90;;;;;;;;;;5053839;28;20048;-71
2023/11/14 13:51:35;;;;;;;1999.90;999.90;;;;;;;;;;5053617;28;20029;-69
2023/11/14 13:54:01;;;;;;;1999.90;999.90;;;;;;;;;;5054051;28;20025;-70
2023/11/14 13:56:27;;;;;;;1999.90;999.90;;;;;;;;;;5053667;28;20070;-77
2023/11/14 13:58:53;;;;;;;1999.90;999.90;;;;;;;;;;5053557;28;20033;-72
2023/11/14 14:01:19;;;;;;;1999.90;999.90;;;;;;;;;;5053058;28;20025;-72
2023/11/14 14:03:45;;;;;;;1999.90;999.90;;;;;;;;;;5052550;28;20051;-68
2023/11/14 14:06:13;;;;;;;1999.90;999.90;;;;;;;;;;5053377;28;20031;-68
2023/11/14 14:08:39;;;;;;;1999.90;999.90;;;;;;;;;;5052930;28;20335;-75
2023/11/14 14:11:10;;;;;;;1999.90;999.90;;;;;;;;;;5053193;28;20037;-68
2023/11/14 14:13:37;;;;;;;1999.90;999.90;;;;;;;;;;5052677;28;20021;-74
2023/11/14 14:16:03;;;;;;;1999.90;999.90;;;;;;;;;;5053279;28;20044;-69
2023/11/14 14:18:31;;;;;;;1999.90;999.90;;;;;;;;;;5053293;28;20028;-71
2023/11/14 14:21:01;;;;;;;1999.90;999.90;;;;;;;;;;5053175;28;20084;-73
2023/11/14 14:23:27;;;;;;;1999.90;999.90;;;;;;;;;;5052795;28;20017;-76
2023/11/14 14:25:54;;;;;;;1999.90;999.90;;;;;;;;;;5052883;28;20033;-70
2023/11/14 14:28:22;;;;;;;1999.90;999.90;;;;;;;;;;5053089;28;20021;-76
2023/11/14 14:30:49;;;;;;;1999.90;999.90;;;;;;;;;;5052610;28;20074;-70
2023/11/14 14:33:15;;;;;;;1999.90;999.90;;;;;;;;;;5052099;28;20021;-70
2023/11/14 14:35:41;;;;;;;1999.90;999.90;;;;;;;;;;5052019;28;20379;-76
2023/11/14 14:38:08;;;;;;;1999.90;999.90;;;;;;;;;;5052775;28;20029;-77
2023/11/14 14:40:34;;;;;;;1999.90;999.90;;;;;;;;;;5052528;28;20036;-73
2023/11/14 14:43:01;;;;;;;1999.90;999.90;;;;;;;;;;5052057;28;20036;-79
2023/11/14 14:45:28;;;;;;;1999.90;999.90;;;;;;;;;;5051714;28;20044;-77
2023/11/14 14:47:54;;;;;;;1999.90;999.90;;;;;;;;;;5052081;28;20044;-75
2023/11/14 14:50:20;;;;;;;1999.90;999.90;;;;;;;;;;5051495;28;20487;-78
2023/11/14 14:52:46;;;;;;;1999.90;999.90;;;;;;;;;;5052332;28;20380;-77
2023/11/14 14:55:12;;;;;;;1999.90;999.90;;;;;;;;;;5052424;28;20090;-72
2023/11/14 14:57:39;;;;;;;1999.90;999.90;;;;;;;;;;5052477;28;20056;-74
2023/11/14 15:00:19;;;;;;;1999.90;999.90;;;;;;;;;;5052068;28;20132;-73
2023/11/14 15:02:46;;;;;;;1999.90;999.90;;;;;;;;;;5051969;28;20112;-69
2023/11/14 15:05:12;;;;;;;1999.90;999.90;;;;;;;;;;5051633;28;20021;-72
2023/11/14 15:07:39;;;;;;;1999.90;999.90;;;;;;;;;;5051635;28;20051;-68
2023/11/14 15:10:07;;;;;;;1999.90;999.90;;;;;;;;;;5051868;28;20032;-74
2023/11/14 15:12:33;;;;;;;1999.90;999.90;;;;;;;;;;5051768;28;20476;-70
2023/11/14 15:15:06;;;;;;;1999.90;999.90;;;;;;;;;;5052241;28;20430;-75
2023/11/14 15:17:33;;;;;;;1999.90;999.90;;;;;;;;;;5051791;28;20025;-74
2023/11/14 15:19:59;;;;;;;1999.90;999.90;;;;;;;;;;5051821;28;20044;-69
2023/11/14 15:22:25;;;;;;;1999.90;999.90;;;;;;;;;;5052241;28;20484;-77
2023/11/14 15:24:52;;;;;;;1999.90;999.90;;;;;;;;;;5051166;28;20029;-71
2023/11/14 15:27:18;;;;;;;1999.90;999.90;;;;;;;;;;5052020;28;20528;-70
2023/11/14 15:29:45;;;;;;;1999.90;999.90;;;;;;;;;;5052240;28;20044;-72
2023/11/14 15:32:11;;;;;;;1999.90;999.90;;;;;;;;;;5052037;28;20518;-72
2023/11/14 15:34:38;;;;;;;1999.90;999.90;;;;;;;;;;5051747;28;20087;-75
2023/11/14 15:37:04;;;;;;;1999.90;999.90;;;;;;;;;;5051110;28;20025;-72
2023/11/14 15:39:32;;;;;;;1999.90;999.90;;;;;;;;;;5051660;28;20036;-67
2023/11/14 15:41:58;;;;;;;1999.90;999.90;;;;;;;;;;5051886;28;20055;-71
2023/11/14 15:44:24;;;;;;;1999.90;999.90;;;;;;;;;;5051117;28;20120;-72
2023/11/14 15:46:50;;;;;;;1999.90;999.90;;;;;;;;;;5051468;28;20025;-69
2023/11/14 15:49:16;;;;;;;1999.90;999.90;;;;;;;;;;5051927;28;20025;-74
2023/11/14 15:51:42;;;;;;;1999.90;999.90;;;;;;;;;;5051338;28;20033;-75
2023/11/14 15:54:08;;;;;;;1999.90;999.90;;;;;;;;;;5051768;28;20471;-73
2023/11/14 15:56:35;;;;;;;1999.90;999.90;;;;;;;;;;5051435;28;20388;-75
2023/11/14 15:59:01;;;;;;;1999.90;999.90;;;;;;;;;;5050973;28;20076;-76
2023/11/14 16:01:27;;;;;;;1999.90;999.90;;;;;;;;;;5051209;28;20025;-67
2023/11/14 16:03:53;;;;;;;1999.90;999.90;;;;;;;;;;5050940;28;20519;-67
2023/11/14 16:06:19;;;;;;;1999.90;999.90;;;;;;;;;;5051033;28;20040;-75
2023/11/14 16:08:46;;;;;;;1999.90;999.90;;;;;;;;;;5051520;28;20021;-70
2023/11/14 16:11:12;;;;;;;1999.90;999.90;;;;;;;;;;5049999;28;20025;-68
2023/11/14 16:13:38;;;;;;;1999.90;999.90;;;;;;;;;;5051390;28;20025;-67
2023/11/14 16:16:07;;;;;;;1999.90;999.90;;;;;;;;;;5051152;28;20025;-78
2023/11/14 16:18:36;;;;;;;1999.90;999.90;;;;;;;;;;5049165;28;20111;-68
2023/11/14 16:21:03;;;;;;;1999.90;999.90;;;;;;;;;;5042614;28;20111;-72
2023/11/14 16:23:29;;;;;;;1999.90;999.90;;;;;;;;;;5040253;28;20151;-68
2023/11/14 16:25:55;;;;;;;1999.90;999.90;;;;;;;;;;5041487;28;20025;-75
2023/11/14 16:28:21;;;;;;;1999.90;999.90;;;;;;;;;;5040492;28;20021;-77
2023/11/14 16:30:47;;;;;;;1999.90;999.90;;;;;;;;;;5049888;28;20025;-71
2023/11/14 16:33:14;;;;;;;1999.90;999.90;;;;;;;;;;5050821;28;20100;-62
2023/11/14 16:35:40;;;;;;;1999.90;999.90;;;;;;;;;;5050637;28;20020;-65
2023/11/14 16:38:06;;;;;;;1999.90;999.90;;;;;;;;;;5050493;28;20110;-75
2023/11/14 16:40:32;;;;;;;1999.90;999.90;;;;;;;;;;5050340;28;20036;-78
2023/11/14 16:42:58;;;;;;;1999.90;999.90;;;;;;;;;;5050692;28;20027;-69
2023/11/14 16:45:25;;;;;;;1999.90;999.90;;;;;;;;;;5050394;28;20056;-79
2023/11/14 16:47:51;;;;;;;1999.90;999.90;;;;;;;;;;5050384;28;20025;-80
2023/11/14 16:50:17;;;;;;;1999.90;999.90;;;;;;;;;;5049827;28;20122;-63
2023/11/14 16:52:45;;;;;;;1999.90;999.90;;;;;;;;;;5050236;28;20032;-65
2023/11/14 16:55:11;;;;;;;1999.90;999.90;;;;;;;;;;5050123;28;20090;-81
2023/11/14 16:57:41;;;;;;;1999.90;999.90;;;;;;;;;;5050448;28;20025;-64
2023/11/14 17:00:07;;;;;;;1999.90;999.90;;;;;;;;;;5050077;28;20407;-73
2023/11/14 17:02:36;;;;;;;1999.90;999.90;;;;;;;;;;5050296;28;20117;-63
2023/11/14 17:05:03;;;;;;;1999.90;999.90;;;;;;;;;;5050199;28;20025;-68
2023/11/14 17:07:30;;;;;;;1999.90;999.90;;;;;;;;;;5050272;28;20104;-79
2023/11/14 17:09:56;;;;;;;1999.90;999.90;;;;;;;;;;5050228;28;20025;-63
2023/11/14 17:12:22;;;;;;;1999.90;999.90;;;;;;;;;;5050035;28;20021;-64
2023/11/14 17:14:49;;;;;;;1999.90;999.90;;;;;;;;;;5050133;28;20064;-63
2023/11/14 17:17:17;;;;;;;1999.90;999.90;;;;;;;;;;5050157;28;20380;-66
2023/11/14 17:19:45;;;;;;;1999.90;999.90;;;;;;;;;;5048139;28;20676;-62
2023/11/14 17:22:11;;;;;;;1999.90;999.90;;;;;;;;;;5049803;28;20062;-72
2023/11/14 17:24:37;;;;;;;1999.90;999.90;;;;;;;;;;5049566;28;20044;-64
2023/11/14 17:27:03;;;;;;;1999.90;999.90;;;;;;;;;;5049678;28;20498;-69
2023/11/14 17:29:30;;;;;;;1999.90;999.90;;;;;;;;;;5049871;28;20037;-72
2023/11/14 17:31:59;;;;;;;1999.90;999.90;;;;;;;;;;5049753;28;20068;-67
2023/11/14 17:34:25;;;;;;;1999.90;999.90;;;;;;;;;;5049614;28;20048;-64
2023/11/14 17:36:51;;;;;;;1999.90;999.90;;;;;;;;;;5049744;28;20021;-73
2023/11/14 17:39:18;;;;;;;1999.90;999.90;;;;;;;;;;5049968;28;20025;-62
2023/11/14 17:41:44;;;;;;;1999.90;999.90;;;;;;;;;;5050269;28;20033;-63
2023/11/14 17:44:11;;;;;;;1999.90;999.90;;;;;;;;;;5050178;28;20029;-76
2023/11/14 17:46:37;;;;;;;1999.90;999.90;;;;;;;;;;5049653;28;20155;-71
2023/11/14 17:49:03;;;;;;;1999.90;999.90;;;;;;;;;;5049112;28;20028;-65
2023/11/14 17:51:31;;;;;;;1999.90;999.90;;;;;;;;;;5049874;28;20029;-75
2023/11/14 17:53:57;;;;;;;1999.90;999.90;;;;;;;;;;5049762;28;20453;-72
2023/11/14 17:56:23;;;;;;;1999.90;999.90;;;;;;;;;;5056892;28;20079;-63
2023/11/14 17:58:49;;;;;;;1999.90;999.90;;;;;;;;;;5049026;28;20033;-75
2023/11/14 18:01:15;;;;;;;1999.90;999.90;;;;;;;;;;5049033;28;20055;-62
2023/11/14 18:03:42;;;;;;;1999.90;999.90;;;;;;;;;;5038862;28;20029;-70
2023/11/14 18:06:09;;;;;;;1999.90;999.90;;;;;;;;;;5039545;28;20052;-62
2023/11/14 18:08:35;;;;;;;1999.90;999.90;;;;;;;;;;5040185;28;20079;-69
2023/11/14 18:11:02;;;;;;;1999.90;999.90;;;;;;;;;;5041200;28;20074;-72
2023/11/14 18:13:28;;;;;;;1999.90;999.90;;;;;;;;;;5046123;28;20021;-71
2023/11/14 18:15:58;;;;;;;1999.90;999.90;;;;;;;;;;5053404;28;20033;-61
2023/11/14 18:18:24;;;;;;;1999.90;999.90;;;;;;;;;;5050181;28;20163;-63
2023/11/14 18:20:50;;;;;;;1999.90;999.90;;;;;;;;;;5040730;28;20400;-62
2023/11/14 18:23:16;;;;;;;1999.90;999.90;;;;;;;;;;5043767;28;20064;-68
2023/11/14 18:25:42;;;;;;;1999.90;999.90;;;;;;;;;;5031825;28;20385;-64
2023/11/14 18:28:08;;;;;;;1999.90;999.90;;;;;;;;;;5033110;28;20017;-65
2023/11/14 18:30:37;;;;;;;1999.90;999.90;;;;;;;;;;5041456;28;20029;-70
2023/11/14 18:33:03;;;;;;;1999.90;999.90;;;;;;;;;;5037394;28;20472;-71
2023/11/14 18:35:29;;;;;;;1999.90;999.90;;;;;;;;;;5041122;28;20028;-67
2023/11/14 18:37:55;;;;;;;1999.90;999.90;;;;;;;;;;5043246;28;20020;-67
2023/11/14 18:40:21;;;;;;;1999.90;999.90;;;;;;;;;;5050633;28;20126;-71